createdAt,value
2022-12-18T00:00:40.306Z,6.11
2022-12-18T00:01:40.339Z,6.13
2022-12-18T00:02:40.461Z,6.11
2022-12-18T00:03:40.728Z,6.11
2022-12-18T00:04:40.252Z,6.11
2022-12-18T00:05:40.242Z,6.11
2022-12-18T00:06:40.227Z,6.13
2022-12-18T00:07:40.212Z,6.10
2022-12-18T00:08:40.197Z,6.10
2022-12-18T00:09:40.700Z,6.10
2022-12-18T00:10:40.173Z,6.10
2022-12-18T00:11:40.162Z,6.10
2022-12-18T00:12:40.145Z,6.10
2022-12-18T00:13:40.656Z,6.13
2022-12-18T00:14:40.142Z,6.11
2022-12-18T00:15:40.110Z,6.16
2022-12-18T00:16:40.172Z,6.13
2022-12-18T00:17:40.083Z,6.13
2022-12-18T00:18:40.755Z,6.14
2022-12-18T00:19:40.054Z,6.13
2022-12-18T00:20:40.048Z,6.13
2022-12-18T00:21:40.028Z,6.11
2022-12-18T00:22:40.047Z,6.14
2022-12-18T00:23:40.513Z,6.13
2022-12-18T00:24:40.007Z,6.10
2022-12-18T00:25:39.976Z,6.10
2022-12-18T00:26:39.961Z,6.13
2022-12-18T00:27:39.947Z,6.13
2022-12-18T00:28:39.935Z,6.13
2022-12-18T00:29:39.922Z,6.11
2022-12-18T00:30:39.932Z,6.10
2022-12-18T00:31:39.965Z,6.10
2022-12-18T00:32:39.879Z,6.11
2022-12-18T00:33:40.328Z,6.11
2022-12-18T00:34:39.853Z,6.09
2022-12-18T00:35:39.840Z,6.09
2022-12-18T00:36:39.824Z,6.09
2022-12-18T00:37:39.818Z,6.09
2022-12-18T00:38:39.801Z,6.09
2022-12-18T00:39:39.786Z,6.06
2022-12-18T00:40:39.774Z,6.06
2022-12-18T00:41:39.760Z,6.07
2022-12-18T00:42:39.746Z,6.07
2022-12-18T00:43:40.226Z,6.07
2022-12-18T00:44:39.718Z,6.09
2022-12-18T00:45:39.761Z,6.10
2022-12-18T00:46:39.719Z,6.09
2022-12-18T00:47:39.680Z,6.07
2022-12-18T00:48:39.665Z,6.09
2022-12-18T00:49:39.661Z,6.10
2022-12-18T00:50:39.639Z,6.10
2022-12-18T00:51:39.628Z,6.10
2022-12-18T00:52:39.613Z,6.10
2022-12-18T00:53:40.026Z,6.11
2022-12-18T00:54:39.586Z,6.10
2022-12-18T00:55:39.579Z,6.09
2022-12-18T00:56:48.442Z,6.09
2022-12-18T00:57:40.594Z,6.07
2022-12-18T00:58:39.532Z,6.09
2022-12-18T00:59:39.521Z,6.06
2022-12-18T01:00:39.587Z,6.06
2022-12-18T01:01:39.766Z,6.06
2022-12-18T01:02:39.666Z,6.09
2022-12-18T01:03:39.801Z,6.10
2022-12-18T01:04:39.454Z,6.10
2022-12-18T01:05:39.441Z,6.09
2022-12-18T01:06:39.426Z,6.09
2022-12-18T01:07:39.418Z,6.09
2022-12-18T01:08:39.400Z,6.07
2022-12-18T01:09:39.388Z,6.09
2022-12-18T01:10:39.375Z,6.07
2022-12-18T01:11:39.362Z,6.07
2022-12-18T01:12:39.350Z,6.07
2022-12-18T01:13:39.763Z,6.06
2022-12-18T01:14:39.321Z,6.07
2022-12-18T01:15:39.308Z,6.06
2022-12-18T01:16:39.382Z,6.06
2022-12-18T01:17:39.290Z,6.06
2022-12-18T01:18:39.295Z,6.06
2022-12-18T01:19:39.256Z,6.06
2022-12-18T01:20:39.250Z,6.06
2022-12-18T01:21:39.231Z,6.06
2022-12-18T01:22:39.219Z,6.04
2022-12-18T01:23:39.699Z,6.06
2022-12-18T01:24:39.188Z,6.07
2022-12-18T01:25:39.177Z,6.07
2022-12-18T01:26:39.163Z,6.07
2022-12-18T01:27:39.150Z,6.07
2022-12-18T01:28:39.135Z,6.06
2022-12-18T01:29:39.122Z,6.06
2022-12-18T01:30:39.109Z,6.06
2022-12-18T01:31:39.138Z,6.06
2022-12-18T01:32:39.084Z,6.06
2022-12-18T01:33:39.544Z,6.06
2022-12-18T01:34:39.056Z,6.06
2022-12-18T01:35:39.044Z,6.06
2022-12-18T01:36:39.031Z,6.07
2022-12-18T01:37:39.018Z,6.06
2022-12-18T01:38:39.001Z,6.04
2022-12-18T01:39:38.991Z,6.06
2022-12-18T01:40:38.982Z,6.06
2022-12-18T01:41:38.966Z,6.06
2022-12-18T01:42:38.949Z,6.04
2022-12-18T01:43:39.339Z,6.04
2022-12-18T01:44:38.924Z,6.04
2022-12-18T01:45:38.947Z,6.04
2022-12-18T01:46:38.896Z,6.04
2022-12-18T01:47:38.884Z,6.03
2022-12-18T01:48:38.870Z,6.03
2022-12-18T01:49:38.861Z,6.03
2022-12-18T01:50:38.842Z,6.03
2022-12-18T01:51:38.832Z,6.01
2022-12-18T01:52:38.817Z,6.03
2022-12-18T01:53:39.143Z,6.04
2022-12-18T01:54:38.790Z,6.03
2022-12-18T01:55:38.778Z,6.04
2022-12-18T01:56:38.763Z,6.03
2022-12-18T01:57:38.751Z,6.03
2022-12-18T01:58:38.736Z,6.01
2022-12-18T01:59:38.723Z,6.01
2022-12-18T02:00:38.710Z,5.98
2022-12-18T02:01:38.908Z,6.00
2022-12-18T02:02:38.820Z,6.00
2022-12-18T02:03:39.126Z,6.00
2022-12-18T02:04:38.656Z,6.01
2022-12-18T02:05:38.645Z,6.00
2022-12-18T02:06:38.630Z,6.00
2022-12-18T02:07:38.619Z,6.03
2022-12-18T02:08:38.605Z,6.04
2022-12-18T02:09:38.592Z,6.03
2022-12-18T02:10:38.578Z,6.03
2022-12-18T02:11:38.571Z,6.01
2022-12-18T02:12:38.670Z,6.01
2022-12-18T02:13:39.032Z,6.01
2022-12-18T02:14:38.527Z,6.04
2022-12-18T02:15:38.517Z,6.03
2022-12-18T02:16:38.570Z,6.03
2022-12-18T02:17:38.488Z,6.01
2022-12-18T02:18:38.473Z,6.00
2022-12-18T02:19:38.462Z,6.00
2022-12-18T02:20:38.448Z,6.01
2022-12-18T02:21:38.434Z,6.00
2022-12-18T02:22:38.421Z,6.03
2022-12-18T02:23:38.868Z,6.01
2022-12-18T02:24:38.393Z,6.01
2022-12-18T02:25:38.386Z,6.00
2022-12-18T02:26:38.365Z,6.00
2022-12-18T02:27:38.354Z,5.98
2022-12-18T02:28:38.463Z,6.00
2022-12-18T02:29:38.330Z,6.00
2022-12-18T02:30:38.380Z,6.00
2022-12-18T02:31:38.302Z,6.00
2022-12-18T02:32:38.289Z,6.03
2022-12-18T02:33:38.701Z,6.00
2022-12-18T02:34:38.261Z,5.96
2022-12-18T02:35:38.249Z,5.98
2022-12-18T02:36:38.235Z,6.00
2022-12-18T02:37:38.223Z,6.01
2022-12-18T02:38:38.209Z,6.03
2022-12-18T02:39:38.197Z,6.00
2022-12-18T02:40:38.181Z,6.01
2022-12-18T02:41:38.170Z,6.01
2022-12-18T02:42:38.157Z,6.00
2022-12-18T02:43:38.497Z,6.00
2022-12-18T02:44:38.251Z,5.98
2022-12-18T02:45:38.179Z,5.98
2022-12-18T02:46:38.104Z,5.96
2022-12-18T02:47:38.094Z,5.96
2022-12-18T02:48:38.077Z,5.98
2022-12-18T02:49:38.064Z,5.98
2022-12-18T02:50:38.050Z,5.98
2022-12-18T02:51:38.038Z,5.98
2022-12-18T02:52:38.029Z,6.00
2022-12-18T02:53:38.447Z,5.98
2022-12-18T02:54:37.996Z,5.98
2022-12-18T02:55:37.986Z,5.96
2022-12-18T02:56:37.970Z,5.96
2022-12-18T02:57:37.958Z,5.98
2022-12-18T02:58:37.944Z,5.96
2022-12-18T02:59:37.935Z,5.96
2022-12-18T03:00:38.039Z,5.98
2022-12-18T03:01:38.096Z,6.00
2022-12-18T03:02:38.046Z,6.00
2022-12-18T03:03:38.311Z,5.98
2022-12-18T03:04:37.867Z,6.00
2022-12-18T03:05:37.854Z,6.00
2022-12-18T03:06:37.840Z,5.98
2022-12-18T03:07:37.830Z,5.96
2022-12-18T03:08:37.813Z,5.96
2022-12-18T03:09:37.800Z,5.98
2022-12-18T03:10:37.787Z,5.98
2022-12-18T03:11:37.774Z,5.98
2022-12-18T03:12:37.760Z,5.98
2022-12-18T03:13:38.207Z,5.98
2022-12-18T03:14:37.733Z,5.98
2022-12-18T03:15:37.719Z,5.96
2022-12-18T03:16:37.886Z,5.96
2022-12-18T03:17:37.692Z,5.95
2022-12-18T03:18:37.681Z,5.93
2022-12-18T03:19:37.667Z,5.95
2022-12-18T03:20:37.654Z,5.93
2022-12-18T03:21:37.663Z,5.95
2022-12-18T03:22:37.629Z,5.95
2022-12-18T03:23:37.672Z,5.96
2022-12-18T03:24:37.602Z,5.98
2022-12-18T03:25:37.588Z,5.95
2022-12-18T03:26:37.577Z,5.95
2022-12-18T03:27:37.560Z,5.95
2022-12-18T03:28:37.555Z,5.96
2022-12-18T03:29:37.535Z,5.96
2022-12-18T03:30:37.613Z,5.96
2022-12-18T03:31:37.508Z,5.95
2022-12-18T03:32:37.620Z,5.96
2022-12-18T03:33:37.946Z,5.95
2022-12-18T03:34:37.470Z,5.95
2022-12-18T03:35:37.457Z,5.95
2022-12-18T03:36:37.443Z,5.93
2022-12-18T03:37:37.432Z,5.93
2022-12-18T03:38:37.419Z,5.93
2022-12-18T03:39:37.402Z,5.95
2022-12-18T03:40:37.392Z,5.95
2022-12-18T03:41:37.376Z,5.95
2022-12-18T03:42:37.363Z,5.93
2022-12-18T03:43:37.772Z,5.96
2022-12-18T03:44:37.336Z,5.96
2022-12-18T03:45:37.322Z,5.96
2022-12-18T03:46:37.310Z,5.96
2022-12-18T03:47:37.295Z,5.95
2022-12-18T03:48:37.405Z,5.95
2022-12-18T03:49:37.268Z,5.95
2022-12-18T03:50:37.257Z,5.95
2022-12-18T03:51:37.243Z,5.96
2022-12-18T03:52:37.231Z,5.95
2022-12-18T03:53:37.714Z,5.95
2022-12-18T03:54:37.203Z,5.96
2022-12-18T03:55:37.190Z,5.95
2022-12-18T03:56:37.176Z,5.96
2022-12-18T03:57:37.161Z,5.95
2022-12-18T03:58:37.150Z,5.95
2022-12-18T03:59:37.134Z,5.93
2022-12-18T04:00:37.123Z,5.92
2022-12-18T04:01:37.279Z,5.92
2022-12-18T04:02:37.246Z,5.92
2022-12-18T04:03:37.163Z,5.92
2022-12-18T04:04:37.189Z,5.95
2022-12-18T04:05:37.054Z,5.93
2022-12-18T04:06:37.044Z,5.92
2022-12-18T04:07:37.029Z,5.92
2022-12-18T04:08:37.017Z,5.93
2022-12-18T04:09:37.007Z,5.92
2022-12-18T04:10:36.990Z,5.93
2022-12-18T04:11:36.975Z,5.93
2022-12-18T04:12:36.964Z,5.95
2022-12-18T04:13:37.427Z,5.93
2022-12-18T04:14:36.937Z,5.93
2022-12-18T04:15:36.998Z,5.93
2022-12-18T04:16:36.912Z,5.95
2022-12-18T04:17:36.897Z,5.93
2022-12-18T04:18:36.890Z,5.95
2022-12-18T04:19:36.872Z,5.93
2022-12-18T04:20:42.833Z,5.92
2022-12-18T04:21:36.965Z,5.93
2022-12-18T04:22:36.833Z,5.93
2022-12-18T04:23:37.086Z,5.93
2022-12-18T04:24:36.809Z,5.95
2022-12-18T04:25:36.793Z,5.93
2022-12-18T04:26:36.783Z,5.93
2022-12-18T04:27:36.768Z,5.93
2022-12-18T04:28:36.756Z,5.93
2022-12-18T04:29:36.742Z,5.95
2022-12-18T04:30:36.730Z,5.95
2022-12-18T04:31:36.791Z,5.93
2022-12-18T04:32:36.704Z,5.95
2022-12-18T04:33:37.135Z,5.93
2022-12-18T04:34:36.678Z,5.95
2022-12-18T04:35:36.664Z,5.93
2022-12-18T04:36:36.654Z,5.93
2022-12-18T04:37:36.754Z,5.93
2022-12-18T04:38:36.631Z,5.93
2022-12-18T04:39:36.609Z,5.92
2022-12-18T04:40:36.597Z,5.93
2022-12-18T04:41:36.583Z,5.92
2022-12-18T04:42:36.612Z,5.92
2022-12-18T04:43:36.782Z,5.92
2022-12-18T04:44:36.546Z,5.91
2022-12-18T04:45:36.527Z,5.92
2022-12-18T04:46:36.568Z,5.91
2022-12-18T04:47:36.501Z,5.92
2022-12-18T04:48:36.496Z,5.92
2022-12-18T04:49:36.476Z,5.91
2022-12-18T04:50:36.463Z,5.92
2022-12-18T04:51:36.452Z,5.91
2022-12-18T04:52:36.435Z,5.91
2022-12-18T04:53:36.905Z,5.91
2022-12-18T04:54:36.409Z,5.91
2022-12-18T04:55:36.397Z,5.91
2022-12-18T04:56:36.385Z,5.91
2022-12-18T04:57:36.366Z,5.91
2022-12-18T04:58:36.354Z,5.92
2022-12-18T04:59:36.343Z,5.93
2022-12-18T05:00:36.328Z,5.91
2022-12-18T05:01:36.414Z,5.92
2022-12-18T05:02:36.456Z,5.92
2022-12-18T05:03:36.456Z,5.89
2022-12-18T05:04:36.275Z,5.88
2022-12-18T05:05:36.259Z,5.89
2022-12-18T05:06:36.249Z,5.91
2022-12-18T05:07:36.232Z,5.91
2022-12-18T05:08:36.224Z,5.88
2022-12-18T05:09:36.333Z,5.88
2022-12-18T05:10:38.244Z,5.88
2022-12-18T05:11:36.181Z,5.88
2022-12-18T05:12:36.174Z,5.88
2022-12-18T05:13:36.424Z,5.91
2022-12-18T05:14:36.144Z,5.93
2022-12-18T05:15:36.242Z,5.89
2022-12-18T05:16:36.116Z,5.91
2022-12-18T05:17:36.101Z,5.91
2022-12-18T05:18:36.090Z,5.89
2022-12-18T05:19:36.074Z,5.89
2022-12-18T05:20:36.060Z,5.89
2022-12-18T05:21:36.047Z,5.89
2022-12-18T05:22:36.036Z,5.89
2022-12-18T05:23:36.099Z,5.91
2022-12-18T05:24:36.008Z,5.92
2022-12-18T05:25:36.112Z,5.89
2022-12-18T05:26:35.985Z,5.89
2022-12-18T05:27:35.967Z,5.91
2022-12-18T05:28:35.954Z,5.92
2022-12-18T05:29:35.940Z,5.91
2022-12-18T05:30:35.929Z,5.88
2022-12-18T05:31:39.627Z,5.88
2022-12-18T05:32:35.908Z,5.88
2022-12-18T05:33:35.945Z,5.86
2022-12-18T05:34:35.875Z,5.86
2022-12-18T05:35:35.858Z,5.88
2022-12-18T05:36:35.852Z,5.88
2022-12-18T05:37:41.072Z,5.89
2022-12-18T05:38:36.859Z,5.88
2022-12-18T05:39:35.806Z,5.89
2022-12-18T05:40:35.793Z,5.91
2022-12-18T05:41:35.900Z,5.91
2022-12-18T05:42:35.768Z,5.86
2022-12-18T05:43:35.751Z,5.88
2022-12-18T05:44:35.741Z,5.86
2022-12-18T05:45:35.724Z,5.86
2022-12-18T05:46:35.776Z,5.88
2022-12-18T05:47:35.699Z,5.88
2022-12-18T05:48:35.688Z,5.88
2022-12-18T05:49:35.671Z,5.88
2022-12-18T05:50:35.660Z,5.86
2022-12-18T05:51:35.645Z,5.86
2022-12-18T05:52:35.635Z,5.85
2022-12-18T05:53:35.621Z,5.85
2022-12-18T05:54:35.608Z,5.85
2022-12-18T05:55:35.591Z,5.83
2022-12-18T05:56:35.582Z,5.88
2022-12-18T05:57:35.684Z,5.86
2022-12-18T05:58:35.557Z,5.83
2022-12-18T05:59:35.537Z,5.88
2022-12-18T06:00:35.588Z,5.86
2022-12-18T06:01:35.665Z,5.86
2022-12-18T06:02:35.664Z,5.86
2022-12-18T06:03:35.557Z,5.86
2022-12-18T06:04:35.472Z,5.88
2022-12-18T06:05:35.469Z,5.89
2022-12-18T06:06:35.444Z,5.86
2022-12-18T06:07:35.429Z,5.88
2022-12-18T06:08:35.418Z,5.88
2022-12-18T06:09:35.404Z,5.89
2022-12-18T06:10:35.396Z,5.89
2022-12-18T06:11:35.379Z,5.88
2022-12-18T06:12:35.366Z,5.89
2022-12-18T06:13:35.495Z,5.89
2022-12-18T06:14:35.339Z,5.91
2022-12-18T06:15:35.322Z,5.89
2022-12-18T06:16:35.409Z,5.89
2022-12-18T06:17:35.296Z,5.86
2022-12-18T06:18:35.285Z,5.86
2022-12-18T06:19:35.275Z,5.86
2022-12-18T06:20:35.266Z,5.86
2022-12-18T06:21:35.243Z,5.86
2022-12-18T06:22:35.231Z,5.86
2022-12-18T06:23:35.217Z,5.86
2022-12-18T06:24:35.204Z,5.86
2022-12-18T06:25:35.188Z,5.85
2022-12-18T06:26:35.177Z,5.85
2022-12-18T06:27:35.162Z,5.86
2022-12-18T06:28:35.150Z,5.85
2022-12-18T06:29:35.257Z,5.85
2022-12-18T06:30:35.124Z,5.83
2022-12-18T06:31:35.168Z,5.83
2022-12-18T06:32:35.096Z,5.83
2022-12-18T06:33:35.083Z,5.85
2022-12-18T06:34:35.072Z,5.85
2022-12-18T06:35:35.055Z,5.86
2022-12-18T06:36:35.044Z,5.86
2022-12-18T06:37:35.029Z,5.86
2022-12-18T06:38:35.017Z,5.86
2022-12-18T06:39:35.006Z,5.85
2022-12-18T06:40:34.990Z,5.85
2022-12-18T06:41:34.976Z,5.86
2022-12-18T06:42:34.965Z,5.85
2022-12-18T06:43:34.949Z,5.85
2022-12-18T06:44:34.937Z,5.85
2022-12-18T06:45:35.168Z,5.82
2022-12-18T06:46:34.914Z,5.83
2022-12-18T06:47:34.898Z,5.83
2022-12-18T06:48:34.883Z,5.83
2022-12-18T06:49:34.869Z,5.85
2022-12-18T06:50:34.859Z,5.83
2022-12-18T06:51:34.842Z,5.83
2022-12-18T06:52:34.832Z,5.83
2022-12-18T06:53:34.815Z,5.82
2022-12-18T06:54:34.803Z,5.82
2022-12-18T06:55:34.789Z,5.83
2022-12-18T06:56:34.778Z,5.83
2022-12-18T06:57:34.762Z,5.83
2022-12-18T06:58:34.750Z,5.85
2022-12-18T06:59:34.735Z,5.86
2022-12-18T07:00:34.733Z,5.83
2022-12-18T07:01:34.948Z,5.85
2022-12-18T07:02:34.834Z,5.85
2022-12-18T07:03:34.681Z,5.85
2022-12-18T07:04:34.671Z,5.85
2022-12-18T07:05:34.654Z,5.83
2022-12-18T07:06:34.643Z,5.82
2022-12-18T07:07:34.629Z,5.82
2022-12-18T07:08:34.618Z,5.83
2022-12-18T07:09:34.601Z,5.83
2022-12-18T07:10:34.589Z,5.82
2022-12-18T07:11:34.573Z,5.81
2022-12-18T07:12:34.563Z,5.81
2022-12-18T07:13:34.550Z,5.81
2022-12-18T07:14:34.554Z,5.82
2022-12-18T07:15:34.520Z,5.81
2022-12-18T07:16:34.571Z,5.81
2022-12-18T07:17:34.615Z,5.81
2022-12-18T07:18:34.484Z,5.82
2022-12-18T07:19:34.471Z,5.82
2022-12-18T07:20:34.455Z,5.82
2022-12-18T07:21:34.447Z,5.82
2022-12-18T07:22:34.431Z,5.82
2022-12-18T07:23:34.416Z,5.83
2022-12-18T07:24:34.401Z,5.83
2022-12-18T07:25:34.389Z,5.83
2022-12-18T07:26:34.375Z,5.82
2022-12-18T07:27:34.363Z,5.82
2022-12-18T07:28:34.350Z,5.82
2022-12-18T07:29:34.335Z,5.83
2022-12-18T07:30:34.325Z,5.82
2022-12-18T07:31:34.361Z,5.78
2022-12-18T07:32:34.295Z,5.81
2022-12-18T07:33:34.409Z,5.78
2022-12-18T07:34:34.267Z,5.77
2022-12-18T07:35:34.258Z,5.78
2022-12-18T07:36:34.245Z,5.78
2022-12-18T07:37:34.228Z,5.78
2022-12-18T07:38:34.215Z,5.82
2022-12-18T07:39:34.202Z,5.82
2022-12-18T07:40:34.187Z,5.81
2022-12-18T07:41:34.178Z,5.82
2022-12-18T07:42:34.165Z,5.83
2022-12-18T07:43:34.148Z,5.83
2022-12-18T07:44:34.134Z,5.82
2022-12-18T07:45:34.241Z,5.83
2022-12-18T07:46:34.109Z,5.81
2022-12-18T07:47:34.093Z,5.82
2022-12-18T07:48:34.084Z,5.82
2022-12-18T07:49:34.188Z,5.82
2022-12-18T07:50:34.054Z,5.82
2022-12-18T07:51:34.042Z,5.78
2022-12-18T07:52:34.025Z,5.81
2022-12-18T07:53:34.020Z,5.81
2022-12-18T07:54:34.002Z,5.78
2022-12-18T07:55:54.729Z,5.81
2022-12-18T07:56:35.013Z,5.78
2022-12-18T07:57:49.999Z,5.81
2022-12-18T07:58:34.987Z,5.82
2022-12-18T07:59:33.934Z,5.85
2022-12-18T08:00:33.920Z,5.82
2022-12-18T08:01:34.074Z,5.81
2022-12-18T08:02:34.091Z,5.81
2022-12-18T08:03:33.880Z,5.82
2022-12-18T08:04:33.867Z,5.82
2022-12-18T08:05:33.974Z,5.82
2022-12-18T08:06:33.841Z,5.82
2022-12-18T08:07:33.832Z,5.83
2022-12-18T08:08:33.813Z,5.83
2022-12-18T08:09:33.803Z,5.85
2022-12-18T08:10:33.791Z,5.85
2022-12-18T08:11:33.779Z,5.85
2022-12-18T08:12:33.763Z,5.85
2022-12-18T08:13:33.750Z,5.85
2022-12-18T08:14:33.735Z,5.83
2022-12-18T08:15:33.723Z,5.83
2022-12-18T08:16:33.764Z,5.82
2022-12-18T08:17:33.696Z,5.82
2022-12-18T08:18:33.683Z,5.82
2022-12-18T08:19:33.671Z,5.82
2022-12-18T08:20:33.653Z,5.83
2022-12-18T08:21:39.591Z,5.85
2022-12-18T08:22:33.755Z,5.82
2022-12-18T08:23:35.932Z,5.82
2022-12-18T08:24:33.601Z,5.81
2022-12-18T08:25:33.593Z,5.82
2022-12-18T08:26:33.579Z,5.81
2022-12-18T08:27:33.562Z,5.81
2022-12-18T08:28:33.548Z,5.83
2022-12-18T08:29:33.538Z,5.82
2022-12-18T08:30:33.590Z,5.83
2022-12-18T08:31:33.564Z,5.83
2022-12-18T08:32:33.494Z,5.83
2022-12-18T08:33:33.489Z,5.81
2022-12-18T08:34:33.469Z,5.82
2022-12-18T08:35:37.838Z,5.81
2022-12-18T08:36:34.485Z,5.82
2022-12-18T08:37:33.474Z,5.82
2022-12-18T08:38:33.546Z,5.78
2022-12-18T08:39:33.407Z,5.78
2022-12-18T08:40:33.392Z,5.81
2022-12-18T08:41:33.381Z,5.82
2022-12-18T08:42:33.365Z,5.81
2022-12-18T08:43:33.354Z,5.82
2022-12-18T08:44:33.339Z,5.83
2022-12-18T08:45:33.326Z,5.82
2022-12-18T08:46:33.399Z,5.82
2022-12-18T08:47:33.300Z,5.82
2022-12-18T08:48:33.285Z,5.82
2022-12-18T08:49:33.277Z,5.82
2022-12-18T08:50:33.267Z,5.82
2022-12-18T08:51:33.267Z,5.82
2022-12-18T08:52:33.249Z,5.81
2022-12-18T08:53:35.741Z,5.82
2022-12-18T08:54:33.335Z,5.82
2022-12-18T08:55:33.194Z,5.82
2022-12-18T08:56:33.184Z,5.82
2022-12-18T08:57:33.174Z,5.83
2022-12-18T08:58:33.154Z,5.83
2022-12-18T08:59:33.142Z,5.83
2022-12-18T09:00:33.126Z,5.82
2022-12-18T09:01:33.339Z,5.85
2022-12-18T09:02:33.224Z,5.82
2022-12-18T09:03:33.160Z,5.83
2022-12-18T09:04:33.073Z,5.83
2022-12-18T09:05:33.061Z,5.83
2022-12-18T09:06:33.047Z,5.83
2022-12-18T09:07:33.036Z,5.83
2022-12-18T09:08:33.043Z,5.83
2022-12-18T09:09:33.007Z,5.85
2022-12-18T09:10:33.117Z,5.85
2022-12-18T09:11:32.983Z,5.83
2022-12-18T09:12:32.965Z,5.83
2022-12-18T09:13:32.956Z,5.83
2022-12-18T09:14:32.937Z,5.82
2022-12-18T09:15:32.928Z,5.85
2022-12-18T09:16:33.147Z,5.83
2022-12-18T09:17:32.899Z,5.85
2022-12-18T09:18:32.885Z,5.86
2022-12-18T09:19:32.879Z,5.82
2022-12-18T09:20:32.858Z,5.83
2022-12-18T09:21:34.274Z,5.83
2022-12-18T09:22:32.833Z,5.83
2022-12-18T09:23:32.821Z,5.83
2022-12-18T09:24:32.811Z,5.82
2022-12-18T09:25:32.795Z,5.83
2022-12-18T09:26:32.907Z,5.83
2022-12-18T09:27:32.769Z,5.83
2022-12-18T09:28:32.754Z,5.83
2022-12-18T09:29:32.742Z,5.83
2022-12-18T09:30:32.741Z,5.83
2022-12-18T09:31:32.718Z,5.83
2022-12-18T09:32:32.702Z,5.83
2022-12-18T09:33:32.691Z,5.85
2022-12-18T09:34:32.674Z,5.82
2022-12-18T09:35:32.663Z,5.83
2022-12-18T09:36:32.647Z,5.83
2022-12-18T09:37:32.636Z,5.83
2022-12-18T09:38:32.623Z,5.82
2022-12-18T09:39:32.609Z,5.82
2022-12-18T09:40:32.596Z,5.82
2022-12-18T09:41:32.581Z,5.83
2022-12-18T09:42:32.692Z,5.82
2022-12-18T09:43:32.555Z,5.85
2022-12-18T09:44:32.692Z,5.85
2022-12-18T09:45:32.529Z,5.85
2022-12-18T09:46:32.574Z,5.85
2022-12-18T09:47:32.502Z,5.85
2022-12-18T09:48:32.486Z,5.83
2022-12-18T09:49:32.479Z,5.85
2022-12-18T09:50:32.462Z,5.85
2022-12-18T09:51:32.449Z,5.86
2022-12-18T09:52:32.435Z,5.83
2022-12-18T09:53:32.423Z,5.83
2022-12-18T09:54:32.408Z,5.85
2022-12-18T09:55:37.186Z,5.85
2022-12-18T09:56:32.383Z,5.86
2022-12-18T09:57:32.373Z,5.88
2022-12-18T09:58:32.493Z,5.89
2022-12-18T09:59:32.344Z,5.88
2022-12-18T10:00:32.331Z,5.88
2022-12-18T10:01:41.498Z,5.88
2022-12-18T10:02:33.545Z,5.86
2022-12-18T10:03:32.295Z,5.85
2022-12-18T10:04:32.351Z,5.86
2022-12-18T10:05:32.267Z,5.86
2022-12-18T10:06:32.253Z,5.85
2022-12-18T10:07:32.239Z,5.86
2022-12-18T10:08:32.226Z,5.88
2022-12-18T10:09:32.223Z,5.85
2022-12-18T10:10:32.203Z,5.86
2022-12-18T10:11:32.191Z,5.86
2022-12-18T10:12:32.178Z,5.86
2022-12-18T10:13:32.167Z,5.88
2022-12-18T10:14:32.266Z,5.88
2022-12-18T10:15:32.198Z,5.86
2022-12-18T10:16:32.121Z,5.86
2022-12-18T10:17:32.109Z,5.88
2022-12-18T10:18:32.095Z,5.88
2022-12-18T10:19:32.082Z,5.88
2022-12-18T10:20:32.066Z,5.88
2022-12-18T10:21:32.057Z,5.88
2022-12-18T10:22:32.049Z,5.86
2022-12-18T10:23:32.029Z,5.89
2022-12-18T10:24:32.015Z,5.88
2022-12-18T10:25:32.003Z,5.86
2022-12-18T10:26:31.990Z,5.89
2022-12-18T10:27:31.976Z,5.88
2022-12-18T10:28:31.961Z,5.86
2022-12-18T10:29:31.952Z,5.88
2022-12-18T10:30:32.060Z,5.89
2022-12-18T10:31:31.961Z,5.88
2022-12-18T10:32:31.911Z,5.88
2022-12-18T10:33:31.898Z,5.88
2022-12-18T10:34:31.885Z,5.89
2022-12-18T10:35:31.870Z,5.88
2022-12-18T10:36:31.857Z,5.88
2022-12-18T10:37:31.856Z,5.88
2022-12-18T10:38:31.842Z,5.89
2022-12-18T10:39:31.817Z,5.89
2022-12-18T10:40:31.805Z,5.89
2022-12-18T10:41:31.791Z,5.88
2022-12-18T10:42:31.777Z,5.86
2022-12-18T10:43:31.765Z,5.86
2022-12-18T10:44:31.750Z,5.86
2022-12-18T10:45:31.738Z,5.86
2022-12-18T10:46:31.944Z,5.86
2022-12-18T10:47:31.712Z,5.88
2022-12-18T10:48:31.696Z,5.88
2022-12-18T10:49:31.684Z,5.86
2022-12-18T10:50:47.190Z,5.86
2022-12-18T10:51:32.696Z,5.86
2022-12-18T10:52:31.643Z,5.88
2022-12-18T10:53:31.631Z,5.89
2022-12-18T10:54:31.617Z,5.89
2022-12-18T10:55:31.604Z,5.89
2022-12-18T10:56:31.596Z,5.91
2022-12-18T10:57:31.580Z,5.91
2022-12-18T10:58:31.563Z,5.89
2022-12-18T10:59:31.552Z,5.91
2022-12-18T11:00:31.537Z,5.91
2022-12-18T11:01:31.652Z,5.91
2022-12-18T11:02:31.923Z,5.91
2022-12-18T11:03:31.703Z,5.92
2022-12-18T11:04:31.486Z,5.89
2022-12-18T11:05:31.470Z,5.89
2022-12-18T11:06:31.457Z,5.89
2022-12-18T11:07:31.444Z,5.91
2022-12-18T11:08:31.430Z,5.88
2022-12-18T11:09:31.420Z,5.89
2022-12-18T11:10:31.402Z,5.91
2022-12-18T11:11:31.390Z,5.89
2022-12-18T11:12:31.377Z,5.91
2022-12-18T11:13:31.365Z,5.91
2022-12-18T11:14:31.349Z,5.92
2022-12-18T11:15:31.338Z,5.91
2022-12-18T11:16:31.372Z,5.89
2022-12-18T11:17:31.488Z,5.89
2022-12-18T11:18:31.418Z,5.91
2022-12-18T11:19:31.285Z,5.91
2022-12-18T11:20:31.270Z,5.91
2022-12-18T11:21:31.257Z,5.89
2022-12-18T11:22:31.243Z,5.88
2022-12-18T11:23:31.230Z,5.88
2022-12-18T11:24:31.217Z,5.88
2022-12-18T11:25:33.067Z,5.91
2022-12-18T11:26:31.189Z,5.92
2022-12-18T11:27:31.181Z,5.89
2022-12-18T11:28:31.161Z,5.91
2022-12-18T11:29:31.152Z,5.89
2022-12-18T11:30:31.134Z,5.89
2022-12-18T11:31:31.164Z,5.88
2022-12-18T11:32:31.111Z,5.89
2022-12-18T11:33:31.096Z,5.91
2022-12-18T11:34:31.368Z,5.91
2022-12-18T11:35:31.070Z,5.91
2022-12-18T11:36:31.056Z,5.92
2022-12-18T11:37:31.044Z,5.89
2022-12-18T11:38:31.030Z,5.91
2022-12-18T11:39:31.014Z,5.91
2022-12-18T11:40:31.005Z,5.92
2022-12-18T11:41:30.991Z,5.92
2022-12-18T11:42:30.978Z,5.92
2022-12-18T11:43:30.962Z,5.93
2022-12-18T11:44:30.954Z,5.92
2022-12-18T11:45:30.946Z,5.92
2022-12-18T11:46:30.979Z,5.92
2022-12-18T11:47:30.908Z,5.89
2022-12-18T11:48:30.898Z,5.92
2022-12-18T11:49:30.884Z,5.91
2022-12-18T11:50:30.993Z,5.91
2022-12-18T11:51:30.859Z,5.91
2022-12-18T11:52:30.846Z,5.91
2022-12-18T11:53:30.832Z,5.93
2022-12-18T11:54:30.819Z,5.92
2022-12-18T11:55:30.807Z,5.92
2022-12-18T11:56:30.793Z,5.92
2022-12-18T11:57:30.778Z,5.92
2022-12-18T11:58:31.736Z,5.89
2022-12-18T11:59:30.750Z,5.91
2022-12-18T12:00:30.739Z,5.93
2022-12-18T12:01:30.754Z,5.92
2022-12-18T12:02:30.892Z,5.91
2022-12-18T12:03:30.727Z,5.92
2022-12-18T12:04:30.782Z,5.91
2022-12-18T12:05:30.671Z,5.92
2022-12-18T12:06:30.775Z,5.89
2022-12-18T12:07:30.645Z,5.88
2022-12-18T12:08:30.632Z,5.86
2022-12-18T12:09:30.620Z,5.86
2022-12-18T12:10:30.605Z,5.86
2022-12-18T12:11:30.591Z,5.89
2022-12-18T12:12:30.582Z,5.89
2022-12-18T12:13:30.564Z,5.89
2022-12-18T12:14:30.551Z,5.89
2022-12-18T12:15:30.537Z,5.88
2022-12-18T12:16:30.576Z,5.91
2022-12-18T12:17:30.512Z,5.91
2022-12-18T12:18:30.498Z,5.91
2022-12-18T12:19:30.484Z,5.88
2022-12-18T12:20:34.699Z,5.88
2022-12-18T12:21:30.460Z,5.89
2022-12-18T12:22:30.561Z,5.88
2022-12-18T12:23:30.429Z,5.88
2022-12-18T12:24:30.422Z,5.88
2022-12-18T12:25:30.403Z,5.88
2022-12-18T12:26:30.395Z,5.88
2022-12-18T12:27:30.386Z,5.89
2022-12-18T12:28:30.366Z,5.91
2022-12-18T12:29:30.349Z,5.89
2022-12-18T12:30:30.338Z,5.92
2022-12-18T12:31:30.358Z,5.91
2022-12-18T12:32:30.310Z,5.89
2022-12-18T12:33:30.296Z,5.89
2022-12-18T12:34:30.284Z,5.91
2022-12-18T12:35:30.269Z,5.89
2022-12-18T12:36:30.258Z,5.89
2022-12-18T12:37:30.244Z,5.88
2022-12-18T12:38:30.359Z,5.86
2022-12-18T12:39:30.219Z,5.89
2022-12-18T12:41:31.230Z,5.89
2022-12-18T12:42:30.179Z,5.88
2022-12-18T12:43:30.162Z,5.91
2022-12-18T12:44:30.150Z,5.92
2022-12-18T12:45:30.247Z,5.89
2022-12-18T12:46:30.123Z,5.91
2022-12-18T12:47:30.109Z,5.91
2022-12-18T12:48:30.097Z,5.91
2022-12-18T12:49:30.082Z,5.88
2022-12-18T12:50:30.070Z,5.88
2022-12-18T12:51:30.075Z,5.91
2022-12-18T12:52:30.044Z,5.91
2022-12-18T12:53:30.036Z,5.91
2022-12-18T12:54:30.141Z,5.89
2022-12-18T12:55:30.006Z,5.91
2022-12-18T12:56:29.994Z,5.92
2022-12-18T12:57:29.978Z,5.91
2022-12-18T12:58:29.966Z,5.89
2022-12-18T12:59:29.950Z,5.92
2022-12-18T13:00:29.939Z,5.91
2022-12-18T13:01:30.144Z,5.91
2022-12-18T13:02:30.018Z,5.89
2022-12-18T13:03:29.900Z,5.91
2022-12-18T13:04:29.887Z,5.91
2022-12-18T13:05:29.870Z,5.92
2022-12-18T13:06:29.857Z,5.93
2022-12-18T13:07:29.874Z,5.93
2022-12-18T13:08:32.988Z,5.92
2022-12-18T13:09:30.856Z,5.91
2022-12-18T13:10:29.921Z,5.91
2022-12-18T13:11:29.797Z,5.91
2022-12-18T13:12:29.787Z,5.91
2022-12-18T13:13:29.762Z,5.91
2022-12-18T13:14:29.751Z,5.93
2022-12-18T13:15:29.735Z,5.93
2022-12-18T13:16:29.724Z,5.93
2022-12-18T13:17:29.709Z,5.92
2022-12-18T13:18:29.698Z,5.91
2022-12-18T13:19:29.682Z,5.93